createdAt,value
2019-05-06T00:00:56.430Z,76.00
2019-05-06T00:02:24.637Z,76.00
2019-05-06T00:03:57.074Z,75.80
2019-05-06T00:05:29.676Z,76.10
2019-05-06T00:07:01.833Z,75.70
2019-05-06T00:08:34.661Z,76.30
2019-05-06T00:10:24.436Z,76.10
2019-05-06T00:11:56.707Z,76.00
2019-05-06T00:13:29.049Z,75.70
2019-05-06T00:15:01.262Z,75.60
2019-05-06T00:16:34.734Z,75.70
2019-05-06T00:18:07.349Z,75.70
2019-05-06T00:19:39.666Z,75.50
2019-05-06T00:21:11.855Z,75.30
2019-05-06T00:22:44.099Z,75.20
2019-05-06T00:24:16.380Z,75.70
2019-05-06T00:26:13.511Z,75.60
2019-05-06T00:28:05.866Z,75.80
2019-05-06T00:29:37.833Z,75.30
2019-05-06T00:31:14.023Z,75.10
2019-05-06T00:32:47.585Z,75.20
2019-05-06T00:34:19.791Z,75.50
2019-05-06T00:35:53.763Z,75.50
2019-05-06T00:37:26.168Z,74.90
2019-05-06T00:39:04.628Z,75.20
2019-05-06T00:40:38.102Z,74.80
2019-05-06T00:42:36.106Z,74.60
2019-05-06T00:44:08.350Z,74.50
2019-05-06T00:45:40.472Z,75.60
2019-05-06T00:47:13.579Z,75.70
2019-05-06T00:48:45.924Z,75.70
2019-05-06T00:50:18.164Z,75.50
2019-05-06T00:51:50.290Z,75.00
2019-05-06T00:53:24.440Z,74.80
2019-05-06T00:54:56.692Z,75.40
2019-05-06T00:56:28.806Z,76.40
2019-05-06T00:58:00.954Z,75.80
2019-05-06T00:59:34.566Z,75.30
2019-05-06T01:01:07.214Z,76.20
2019-05-06T01:02:39.490Z,75.80
2019-05-06T01:04:13.752Z,75.80
2019-05-06T01:05:45.647Z,75.70
2019-05-06T01:07:17.914Z,76.00
2019-05-06T01:08:50.159Z,76.10
2019-05-06T01:10:23.820Z,76.30
2019-05-06T01:11:58.286Z,76.40
2019-05-06T01:13:38.380Z,76.30
2019-05-06T01:15:14.868Z,76.70
2019-05-06T01:16:47.003Z,77.20
2019-05-06T01:18:19.252Z,76.10
2019-05-06T01:19:51.368Z,77.40
2019-05-06T01:21:23.901Z,76.70
2019-05-06T01:22:56.279Z,76.90
2019-05-06T01:24:28.387Z,76.40
2019-05-06T01:26:00.499Z,76.00
2019-05-06T01:27:33.773Z,75.90
2019-05-06T01:29:06.043Z,75.40
2019-05-06T01:30:38.112Z,75.30
2019-05-06T01:32:10.749Z,75.50
2019-05-06T01:33:45.060Z,75.40
2019-05-06T01:35:17.178Z,75.80
2019-05-06T01:36:51.146Z,76.10
2019-05-06T01:38:28.527Z,76.30
2019-05-06T01:40:17.778Z,75.60
2019-05-06T01:42:13.878Z,75.70
2019-05-06T01:43:46.170Z,76.50
2019-05-06T01:45:18.249Z,76.80
2019-05-06T01:46:50.516Z,76.70
2019-05-06T01:48:44.245Z,77.00
2019-05-06T01:50:16.634Z,76.40
2019-05-06T01:51:48.836Z,77.20
2019-05-06T01:53:21.108Z,77.00
2019-05-06T01:54:54.243Z,75.90
2019-05-06T01:56:26.613Z,76.20
2019-05-06T01:57:58.856Z,76.30
2019-05-06T01:59:31.000Z,76.10
2019-05-06T02:01:04.046Z,75.70
2019-05-06T02:02:36.277Z,75.90
2019-05-06T02:04:08.528Z,75.80
2019-05-06T02:05:40.646Z,76.10
2019-05-06T02:07:14.506Z,76.10
2019-05-06T02:08:46.829Z,75.80
2019-05-06T02:10:18.992Z,75.90
2019-05-06T02:11:51.090Z,76.20
2019-05-06T02:13:23.824Z,76.10
2019-05-06T02:14:56.281Z,76.00
2019-05-06T02:16:28.398Z,75.70
2019-05-06T02:18:00.608Z,75.70
2019-05-06T02:19:34.714Z,76.00
2019-05-06T02:21:13.852Z,76.30
2019-05-06T02:22:53.760Z,75.70
2019-05-06T02:24:33.697Z,76.10
2019-05-06T02:26:06.383Z,76.50
2019-05-06T02:27:38.608Z,76.00
2019-05-06T02:29:15.206Z,76.40
2019-05-06T02:31:07.116Z,75.80
2019-05-06T02:32:45.901Z,75.90
2019-05-06T02:34:25.438Z,75.40
2019-05-06T02:36:06.738Z,75.50
2019-05-06T02:37:40.489Z,75.90
2019-05-06T02:39:14.073Z,75.80
2019-05-06T02:40:46.646Z,75.50
2019-05-06T02:42:18.759Z,74.70
2019-05-06T02:43:53.958Z,74.50
2019-05-06T02:45:25.231Z,75.00
2019-05-06T02:47:13.732Z,75.20
2019-05-06T02:49:13.237Z,75.00
2019-05-06T02:51:20.089Z,75.30
2019-05-06T02:52:53.685Z,75.00
2019-05-06T02:54:26.097Z,75.30
2019-05-06T02:55:58.224Z,75.50
2019-05-06T02:57:33.210Z,75.70
2019-05-06T02:59:04.546Z,75.40
2019-05-06T03:00:36.797Z,75.20
2019-05-06T03:02:09.083Z,74.80
2019-05-06T03:03:43.595Z,75.50
2019-05-06T03:05:15.341Z,75.30
2019-05-06T03:06:47.588Z,75.40
2019-05-06T03:08:19.914Z,75.30
2019-05-06T03:09:53.142Z,75.20
2019-05-06T03:11:25.752Z,75.10
2019-05-06T03:12:58.023Z,75.60
2019-05-06T03:14:30.120Z,75.60
2019-05-06T03:16:05.357Z,75.60
2019-05-06T03:17:36.656Z,75.70
2019-05-06T03:19:09.003Z,75.90
2019-05-06T03:21:04.022Z,75.80
2019-05-06T03:22:59.760Z,75.60
2019-05-06T03:24:36.040Z,76.10
2019-05-06T03:26:08.117Z,75.70
2019-05-06T03:27:40.188Z,75.70
2019-05-06T03:29:13.670Z,75.70
2019-05-06T03:30:46.485Z,75.90
2019-05-06T03:32:25.288Z,76.10
2019-05-06T03:34:17.129Z,75.90
2019-05-06T03:35:42.042Z,76.00
2019-05-06T03:37:06.611Z,76.10
2019-05-06T03:38:35.528Z,76.20
2019-05-06T03:40:09.610Z,76.10
2019-05-06T03:41:43.821Z,75.90
2019-05-06T03:43:16.215Z,76.60
2019-05-06T03:44:53.484Z,76.00
2019-05-06T03:46:43.183Z,75.90
2019-05-06T03:48:24.079Z,76.20
2019-05-06T03:49:56.537Z,75.80
2019-05-06T03:51:28.948Z,75.30
2019-05-06T03:53:03.310Z,75.60
2019-05-06T03:54:37.263Z,75.50
2019-05-06T03:56:10.305Z,75.80
2019-05-06T03:57:43.611Z,76.00
2019-05-06T03:59:16.061Z,75.30
2019-05-06T04:00:48.774Z,75.60
2019-05-06T04:02:23.754Z,76.60
2019-05-06T04:03:57.241Z,75.60
2019-05-06T04:05:33.264Z,75.70
2019-05-06T04:07:04.252Z,75.70
2019-05-06T04:08:36.716Z,75.50
2019-05-06T04:10:09.131Z,75.30
2019-05-06T04:11:43.258Z,75.20
2019-05-06T04:13:15.665Z,75.60
2019-05-06T04:14:48.098Z,75.60
2019-05-06T04:16:39.011Z,75.50
2019-05-06T04:18:12.498Z,76.80
2019-05-06T04:19:48.730Z,76.00
2019-05-06T04:21:37.730Z,76.10
2019-05-06T04:23:35.262Z,76.00
2019-05-06T04:25:34.021Z,76.50
2019-05-06T04:27:39.403Z,76.10
2019-05-06T04:29:13.062Z,76.70
2019-05-06T04:30:45.500Z,76.30
2019-05-06T04:32:17.746Z,76.80
2019-05-06T04:34:08.025Z,76.20
2019-05-06T04:35:24.629Z,76.80
2019-05-06T04:36:56.908Z,76.60
2019-05-06T04:38:29.288Z,76.40
2019-05-06T04:40:04.188Z,76.20
2019-05-06T04:41:35.511Z,75.90
2019-05-06T04:43:07.624Z,76.30
2019-05-06T04:44:39.739Z,76.50
2019-05-06T04:46:13.587Z,76.80
2019-05-06T04:47:47.736Z,76.90
2019-05-06T04:49:23.504Z,76.90
2019-05-06T04:50:54.630Z,77.10
2019-05-06T04:52:26.821Z,76.60
2019-05-06T04:53:59.086Z,77.20
2019-05-06T04:55:33.605Z,77.20
2019-05-06T04:57:06.177Z,77.30
2019-05-06T04:58:38.881Z,77.30
2019-05-06T05:00:12.997Z,77.60
2019-05-06T05:01:47.333Z,77.40
2019-05-06T05:03:22.519Z,77.80
2019-05-06T05:04:54.690Z,77.50
2019-05-06T05:06:26.929Z,77.80
2019-05-06T05:07:59.138Z,77.90
2019-05-06T05:09:32.582Z,77.70
2019-05-06T05:11:26.462Z,77.30
2019-05-06T05:13:09.345Z,76.80
2019-05-06T05:14:54.141Z,76.80
2019-05-06T05:16:35.925Z,77.30
2019-05-06T05:18:13.002Z,77.50
2019-05-06T05:19:45.784Z,76.60
2019-05-06T05:21:17.863Z,76.30
2019-05-06T05:22:50.023Z,76.60
2019-05-06T05:24:23.529Z,76.70
2019-05-06T05:25:56.284Z,77.10
2019-05-06T05:27:32.790Z,77.10
2019-05-06T05:29:04.302Z,77.00
2019-05-06T05:30:36.593Z,77.30
2019-05-06T05:32:08.824Z,77.60
2019-05-06T05:33:42.358Z,77.50
2019-05-06T05:35:15.748Z,77.50
2019-05-06T05:36:48.032Z,77.70
2019-05-06T05:38:22.764Z,76.60
2019-05-06T05:39:55.071Z,76.40
2019-05-06T05:41:27.402Z,76.20
2019-05-06T05:43:17.895Z,75.70
2019-05-06T05:44:52.251Z,76.20
2019-05-06T05:46:24.814Z,75.30
2019-05-06T05:47:59.631Z,75.30
2019-05-06T05:50:09.515Z,76.10
2019-05-06T05:51:42.595Z,75.40
2019-05-06T05:53:15.407Z,75.50
2019-05-06T05:54:47.737Z,75.70
2019-05-06T05:56:20.049Z,75.70
2019-05-06T05:57:52.317Z,75.70
2019-05-06T05:59:24.548Z,76.00
2019-05-06T06:00:58.334Z,76.00
2019-05-06T06:02:30.580Z,76.90
2019-05-06T06:04:03.255Z,76.80
2019-05-06T06:05:35.660Z,76.80
2019-05-06T06:07:07.786Z,76.40
2019-05-06T06:08:42.920Z,76.10
2019-05-06T06:10:28.459Z,75.50
2019-05-06T06:12:03.729Z,76.20
2019-05-06T06:13:35.979Z,76.50
2019-05-06T06:15:22.308Z,75.80
2019-05-06T06:17:04.244Z,76.80
2019-05-06T06:18:59.556Z,76.30
2019-05-06T06:20:53.411Z,75.80
2019-05-06T06:22:26.880Z,75.20
2019-05-06T06:24:03.040Z,75.30
2019-05-06T06:25:35.336Z,75.10
2019-05-06T06:27:07.648Z,75.20
2019-05-06T06:28:42.528Z,74.70
2019-05-06T06:30:14.916Z,74.90
2019-05-06T06:32:08.109Z,73.80
2019-05-06T06:33:42.855Z,73.40
2019-05-06T06:35:32.403Z,73.00
2019-05-06T06:37:27.114Z,73.20
2019-05-06T06:39:06.011Z,73.20
2019-05-06T06:40:38.464Z,72.30
2019-05-06T06:42:12.664Z,72.20
2019-05-06T06:43:46.949Z,72.50
2019-05-06T06:45:19.052Z,72.60
2019-05-06T06:46:52.442Z,71.90
2019-05-06T06:48:27.938Z,71.90
2019-05-06T06:50:02.809Z,72.80
2019-05-06T06:51:35.024Z,71.70
2019-05-06T06:53:07.272Z,71.20
2019-05-06T06:54:39.419Z,70.90
2019-05-06T06:56:40.014Z,70.60
2019-05-06T06:58:35.866Z,70.40
2019-05-06T07:00:33.139Z,70.60
2019-05-06T07:02:14.117Z,70.30
2019-05-06T07:03:54.501Z,70.00
2019-05-06T07:05:43.365Z,69.70
2019-05-06T07:07:16.318Z,68.90
2019-05-06T07:08:48.553Z,68.20
2019-05-06T07:10:39.009Z,66.00
2019-05-06T07:12:13.193Z,64.10
2019-05-06T07:13:53.580Z,61.20
2019-05-06T07:15:25.806Z,59.00
2019-05-06T07:16:57.951Z,57.60
2019-05-06T07:18:30.222Z,56.30
2019-05-06T07:20:06.228Z,55.00
2019-05-06T07:21:52.383Z,54.10
2019-05-06T07:23:25.474Z,53.40
2019-05-06T07:24:57.692Z,53.50
2019-05-06T07:26:35.176Z,53.00
2019-05-06T07:28:07.420Z,50.90
2019-05-06T07:29:39.917Z,51.30
2019-05-06T07:31:21.147Z,51.10
2019-05-06T07:32:46.986Z,50.20
2019-05-06T07:34:19.381Z,48.40
2019-05-06T07:35:52.915Z,47.70
2019-05-06T07:37:25.585Z,45.90
2019-05-06T07:38:57.748Z,45.70
2019-05-06T07:40:32.497Z,47.10
2019-05-06T07:42:09.668Z,45.60
2019-05-06T07:44:04.249Z,45.40
2019-05-06T07:45:45.334Z,44.00
2019-05-06T07:47:37.067Z,43.80
2019-05-06T07:49:09.295Z,42.30
2019-05-06T07:50:42.503Z,43.20
2019-05-06T07:52:17.176Z,43.20
2019-05-06T07:53:49.080Z,43.80
2019-05-06T07:55:22.986Z,40.80
2019-05-06T07:56:55.485Z,42.70
2019-05-06T07:58:27.599Z,43.20
2019-05-06T07:59:59.958Z,44.40
2019-05-06T08:01:33.298Z,45.10
2019-05-06T08:03:05.656Z,44.60
2019-05-06T08:04:37.829Z,43.90
2019-05-06T08:06:10.095Z,45.50
2019-05-06T08:07:42.400Z,46.00
2019-05-06T08:09:14.735Z,45.30
2019-05-06T08:10:47.007Z,44.70
2019-05-06T08:12:19.360Z,44.70
2019-05-06T08:13:52.733Z,42.80
2019-05-06T08:15:25.153Z,43.00
2019-05-06T08:17:03.011Z,42.10
2019-05-06T08:18:35.295Z,40.80
2019-05-06T08:20:08.336Z,39.90
2019-05-06T08:21:42.773Z,41.40
2019-05-06T08:23:26.800Z,41.70
2019-05-06T08:24:58.949Z,41.60
2019-05-06T08:26:32.320Z,41.20
2019-05-06T08:28:04.613Z,40.60
2019-05-06T08:29:36.885Z,41.90
2019-05-06T08:31:09.169Z,40.80
2019-05-06T08:32:42.468Z,42.70
2019-05-06T08:34:14.886Z,42.60
2019-05-06T08:35:47.227Z,43.40
2019-05-06T08:37:27.720Z,44.90
2019-05-06T08:38:59.951Z,45.60
2019-05-06T08:40:33.391Z,44.90
2019-05-06T08:42:05.693Z,46.00
2019-05-06T08:43:38.072Z,45.10
2019-05-06T08:45:12.854Z,42.80
2019-05-06T08:46:45.304Z,44.50
2019-05-06T08:48:17.550Z,44.30
2019-05-06T08:50:12.871Z,45.00
2019-05-06T08:51:53.103Z,45.00
2019-05-06T08:53:45.023Z,44.70
2019-05-06T08:55:25.245Z,44.40
2019-05-06T08:56:58.074Z,43.80
2019-05-06T08:58:46.502Z,43.70
2019-05-06T09:00:18.704Z,42.50
2019-05-06T09:01:53.395Z,40.80
2019-05-06T09:03:25.707Z,41.60
2019-05-06T09:04:58.017Z,40.80
2019-05-06T09:06:34.063Z,41.80
2019-05-06T09:08:04.439Z,41.10
2019-05-06T09:09:36.768Z,43.30
2019-05-06T09:11:09.025Z,42.90
2019-05-06T09:12:42.548Z,43.00
2019-05-06T09:14:14.809Z,43.70
2019-05-06T09:15:46.946Z,44.20
2019-05-06T09:17:19.190Z,45.60
2019-05-06T09:18:53.292Z,45.50
2019-05-06T09:20:27.163Z,45.20
2019-05-06T09:21:59.300Z,45.00
2019-05-06T09:23:32.720Z,44.50
2019-05-06T09:25:05.074Z,44.40
2019-05-06T09:26:43.207Z,44.80
2019-05-06T09:28:27.832Z,44.40
2019-05-06T09:30:14.114Z,44.40
2019-05-06T09:31:52.213Z,44.60
2019-05-06T09:33:29.803Z,44.80
2019-05-06T09:35:02.880Z,44.30
2019-05-06T09:36:44.256Z,44.80
2019-05-06T09:38:09.341Z,44.00
2019-05-06T09:39:43.196Z,44.20
2019-05-06T09:41:15.646Z,43.90
2019-05-06T09:42:47.986Z,45.10
2019-05-06T09:44:22.653Z,44.80
2019-05-06T09:45:55.108Z,44.20
2019-05-06T09:47:55.896Z,43.60
2019-05-06T09:49:29.380Z,44.80
2019-05-06T09:51:02.906Z,44.00
2019-05-06T09:52:35.176Z,43.90
2019-05-06T09:54:42.802Z,44.10
2019-05-06T09:56:22.991Z,43.60
2019-05-06T09:57:57.448Z,43.60
2019-05-06T09:59:32.046Z,44.00
2019-05-06T10:01:04.654Z,44.20
2019-05-06T10:02:37.008Z,44.50
2019-05-06T10:04:09.153Z,43.90
2019-05-06T10:05:42.493Z,45.00
2019-05-06T10:07:15.117Z,45.30
2019-05-06T10:08:47.223Z,45.50
2019-05-06T10:10:19.380Z,46.00
2019-05-06T10:11:52.547Z,46.80
2019-05-06T10:13:25.016Z,46.00
2019-05-06T10:14:57.123Z,47.00
2019-05-06T10:16:29.370Z,46.20
2019-05-06T10:18:07.978Z,46.50
2019-05-06T10:19:40.107Z,44.80
2019-05-06T10:21:12.565Z,44.80
2019-05-06T10:22:44.942Z,43.70
2019-05-06T10:24:17.195Z,43.40
2019-05-06T10:25:49.370Z,42.60
2019-05-06T10:27:22.718Z,41.60
2019-05-06T10:29:02.435Z,41.40
2019-05-06T10:30:34.857Z,41.80
2019-05-06T10:32:29.660Z,42.80
2019-05-06T10:34:13.966Z,43.30
2019-05-06T10:35:45.696Z,42.70
2019-05-06T10:37:33.351Z,41.80
2019-05-06T10:39:09.429Z,41.80
2019-05-06T10:41:00.077Z,42.60
2019-05-06T10:42:24.994Z,42.00
2019-05-06T10:44:38.278Z,42.90
2019-05-06T10:46:13.018Z,42.60
2019-05-06T10:47:44.633Z,41.40
2019-05-06T10:49:16.826Z,41.70
2019-05-06T10:50:52.180Z,42.00
2019-05-06T10:52:44.057Z,41.50
2019-05-06T10:54:16.133Z,41.50
2019-05-06T10:55:53.329Z,41.70
2019-05-06T10:57:43.075Z,42.20
2019-05-06T10:59:16.201Z,41.90
2019-05-06T11:00:52.898Z,41.20
2019-05-06T11:02:43.593Z,41.90
2019-05-06T11:04:15.893Z,41.60
2019-05-06T11:05:48.695Z,41.80
2019-05-06T11:07:29.279Z,42.10
2019-05-06T11:08:54.845Z,42.00
2019-05-06T11:10:31.265Z,43.00
2019-05-06T11:12:02.679Z,42.30
2019-05-06T11:13:35.357Z,41.10
2019-05-06T11:15:07.811Z,41.70
2019-05-06T11:16:39.974Z,41.80
2019-05-06T11:18:13.558Z,42.00
2019-05-06T11:19:46.229Z,40.70
2019-05-06T11:21:18.512Z,40.30
2019-05-06T11:22:52.664Z,41.10
2019-05-06T11:24:26.372Z,40.20
2019-05-06T11:25:58.612Z,39.90
2019-05-06T11:27:32.708Z,39.30
2019-05-06T11:29:12.353Z,39.80
2019-05-06T11:31:02.674Z,40.20
2019-05-06T11:32:48.131Z,39.60
2019-05-06T11:34:36.578Z,39.80
2019-05-06T11:36:15.833Z,39.60
2019-05-06T11:37:58.580Z,39.40
2019-05-06T11:39:32.233Z,40.20
2019-05-06T11:41:04.746Z,39.60
2019-05-06T11:42:37.051Z,40.30
2019-05-06T11:44:09.367Z,41.10
2019-05-06T11:45:42.714Z,40.50
2019-05-06T11:47:15.022Z,41.10
2019-05-06T11:48:47.142Z,41.20
2019-05-06T11:50:19.216Z,42.20
2019-05-06T11:51:51.349Z,42.20
2019-05-06T11:53:23.498Z,42.30
2019-05-06T11:54:55.564Z,42.30
2019-05-06T11:56:27.679Z,42.70
2019-05-06T11:58:02.383Z,42.00
2019-05-06T11:59:34.025Z,42.50
2019-05-06T12:01:09.934Z,42.50
2019-05-06T12:02:45.120Z,42.70
2019-05-06T12:04:16.103Z,42.30
2019-05-06T12:05:48.245Z,40.00
2019-05-06T12:07:24.185Z,40.30
2019-05-06T12:08:56.527Z,42.00
2019-05-06T12:10:28.803Z,40.70
2019-05-06T12:12:03.307Z,40.80
2019-05-06T12:13:38.137Z,41.10
2019-05-06T12:15:09.561Z,40.40
2019-05-06T12:16:41.718Z,41.90
2019-05-06T12:18:14.061Z,41.00
2019-05-06T12:19:46.303Z,39.80
2019-05-06T12:21:19.344Z,41.50
2019-05-06T12:22:52.856Z,41.80
2019-05-06T12:24:25.257Z,40.10
2019-05-06T12:25:57.626Z,41.40
2019-05-06T12:27:44.771Z,41.10
2019-05-06T12:29:16.971Z,41.00
2019-05-06T12:30:49.208Z,39.70
2019-05-06T12:32:33.473Z,40.30
2019-05-06T12:34:05.733Z,39.10
2019-05-06T12:35:40.322Z,41.10
2019-05-06T12:37:14.845Z,40.40
2019-05-06T12:39:06.812Z,41.00
2019-05-06T12:40:39.224Z,40.50
2019-05-06T12:42:25.800Z,40.00
2019-05-06T12:43:58.771Z,39.80
2019-05-06T12:45:35.299Z,40.30
2019-05-06T12:47:27.078Z,39.80
2019-05-06T12:48:59.198Z,40.20
2019-05-06T12:50:33.201Z,40.90
2019-05-06T12:52:05.445Z,40.20
2019-05-06T12:53:37.743Z,39.50
2019-05-06T12:55:18.334Z,39.70
2019-05-06T12:56:44.187Z,41.10
2019-05-06T12:58:20.223Z,41.20
2019-05-06T12:59:52.828Z,39.60
2019-05-06T13:01:24.589Z,39.70
2019-05-06T13:02:56.807Z,39.20
2019-05-06T13:04:45.907Z,40.00
2019-05-06T13:06:07.404Z,39.50
2019-05-06T13:07:43.445Z,41.00
2019-05-06T13:09:15.652Z,40.40
2019-05-06T13:10:47.844Z,41.10
2019-05-06T13:12:23.459Z,41.00
2019-05-06T13:14:00.429Z,41.00
2019-05-06T13:15:29.998Z,41.10
2019-05-06T13:17:02.865Z,40.50
2019-05-06T13:18:35.295Z,40.70
2019-05-06T13:20:07.558Z,40.10
2019-05-06T13:21:42.019Z,41.30
2019-05-06T13:23:28.518Z,40.90
2019-05-06T13:25:03.901Z,40.50
2019-05-06T13:26:35.100Z,40.80
2019-05-06T13:28:09.324Z,41.50
2019-05-06T13:29:42.910Z,41.80
2019-05-06T13:31:20.916Z,40.60
2019-05-06T13:32:54.118Z,41.00
2019-05-06T13:34:26.474Z,41.60
2019-05-06T13:35:58.956Z,41.10
2019-05-06T13:37:33.660Z,40.70
2019-05-06T13:39:13.852Z,40.80
2019-05-06T13:40:53.869Z,41.10
2019-05-06T13:42:16.209Z,41.20
2019-05-06T13:44:02.457Z,41.50
2019-05-06T13:45:35.551Z,41.40
2019-05-06T13:47:12.121Z,41.30
2019-05-06T13:48:53.276Z,41.20
2019-05-06T13:50:28.353Z,40.90
2019-05-06T13:52:04.480Z,41.40
2019-05-06T13:53:39.574Z,41.10
2019-05-06T13:55:12.922Z,41.30
2019-05-06T13:56:48.576Z,41.20
2019-05-06T13:58:19.313Z,40.90
2019-05-06T13:59:53.280Z,41.40
2019-05-06T14:01:27.565Z,41.10
2019-05-06T14:03:01.981Z,40.40
2019-05-06T14:04:33.947Z,40.40
2019-05-06T14:06:06.222Z,41.10
2019-05-06T14:07:38.506Z,40.90
2019-05-06T14:09:27.622Z,40.10
2019-05-06T14:10:56.471Z,41.40
2019-05-06T14:12:18.736Z,41.10
2019-05-06T14:13:52.938Z,40.80
2019-05-06T14:15:25.157Z,41.40
2019-05-06T14:16:57.429Z,41.50
2019-05-06T14:18:29.714Z,41.20
2019-05-06T14:20:02.622Z,41.40
2019-05-06T14:21:35.174Z,41.80
2019-05-06T14:23:07.971Z,41.70
2019-05-06T14:24:43.379Z,41.60
2019-05-06T14:26:22.945Z,42.10
2019-05-06T14:27:59.006Z,41.70
2019-05-06T14:29:49.546Z,41.20
2019-05-06T14:31:25.813Z,41.20
2019-05-06T14:32:58.084Z,41.80
2019-05-06T14:34:32.305Z,41.30
2019-05-06T14:36:04.245Z,41.70
2019-05-06T14:37:36.512Z,41.90
2019-05-06T14:39:15.722Z,41.70
2019-05-06T14:41:09.937Z,41.90
2019-05-06T14:42:42.471Z,41.80
2019-05-06T14:44:14.754Z,42.00
2019-05-06T14:45:47.031Z,42.20
2019-05-06T14:47:24.482Z,42.10
2019-05-06T14:48:58.396Z,42.20
2019-05-06T14:50:43.898Z,42.60
2019-05-06T14:52:04.826Z,42.60
2019-05-06T14:53:36.995Z,42.70
2019-05-06T14:55:17.698Z,42.30
2019-05-06T14:56:53.560Z,42.70
2019-05-06T14:58:25.905Z,42.50
2019-05-06T14:59:58.051Z,42.10
2019-05-06T15:01:33.528Z,42.30
2019-05-06T15:03:05.131Z,42.80
2019-05-06T15:04:37.403Z,43.50
2019-05-06T15:06:09.595Z,42.90
2019-05-06T15:07:42.165Z,42.90
2019-05-06T15:09:14.631Z,43.10
2019-05-06T15:10:49.347Z,43.40
2019-05-06T15:12:22.949Z,43.00
2019-05-06T15:13:54.941Z,43.00
2019-05-06T15:15:27.233Z,43.10
2019-05-06T15:16:59.482Z,43.20
2019-05-06T15:18:32.168Z,43.10
2019-05-06T15:20:05.112Z,43.10
2019-05-06T15:21:39.256Z,42.60
2019-05-06T15:23:13.083Z,43.20
2019-05-06T15:24:47.187Z,43.40
2019-05-06T15:26:19.350Z,43.90
2019-05-06T15:27:53.137Z,43.70
2019-05-06T15:29:25.480Z,43.80
2019-05-06T15:31:12.462Z,43.90
2019-05-06T15:32:44.896Z,43.80
2019-05-06T15:34:22.377Z,43.90
2019-05-06T15:35:58.567Z,43.90
2019-05-06T15:37:42.307Z,44.00
2019-05-06T15:39:14.241Z,43.70
2019-05-06T15:40:47.157Z,44.20
2019-05-06T15:42:19.379Z,44.30
2019-05-06T15:43:51.585Z,44.00
2019-05-06T15:45:25.661Z,44.30
2019-05-06T15:46:57.825Z,44.10
2019-05-06T15:48:29.930Z,44.00
2019-05-06T15:50:02.163Z,44.10
2019-05-06T15:51:34.274Z,44.50
2019-05-06T15:53:06.416Z,44.50
2019-05-06T15:54:38.827Z,44.80
2019-05-06T15:56:12.254Z,44.60
2019-05-06T15:57:44.620Z,44.20
2019-05-06T15:59:16.880Z,44.10
2019-05-06T16:00:49.205Z,44.30
2019-05-06T16:02:23.339Z,44.50
2019-05-06T16:03:55.481Z,44.70
2019-05-06T16:05:27.618Z,44.40
2019-05-06T16:06:59.892Z,44.30
2019-05-06T16:08:32.225Z,45.50
2019-05-06T16:10:06.308Z,44.90
2019-05-06T16:11:38.578Z,44.80
2019-05-06T16:13:12.778Z,45.00
2019-05-06T16:14:44.821Z,44.80
2019-05-06T16:16:16.905Z,44.70
2019-05-06T16:17:49.035Z,44.40
2019-05-06T16:19:22.793Z,45.00
2019-05-06T16:20:57.228Z,45.10
2019-05-06T16:22:29.168Z,45.10
2019-05-06T16:24:12.567Z,45.10
2019-05-06T16:25:44.874Z,45.10
2019-05-06T16:27:17.157Z,45.30
2019-05-06T16:28:49.464Z,45.50
2019-05-06T16:30:24.112Z,45.00
2019-05-06T16:31:55.864Z,45.00
2019-05-06T16:33:28.132Z,44.80
2019-05-06T16:35:00.344Z,45.00
2019-05-06T16:36:32.879Z,45.50
2019-05-06T16:38:05.596Z,45.50
2019-05-06T16:39:37.891Z,45.90
2019-05-06T16:41:13.186Z,46.20
2019-05-06T16:42:46.053Z,46.20
2019-05-06T16:44:18.557Z,46.20
2019-05-06T16:45:53.101Z,46.20
2019-05-06T16:47:37.301Z,46.00
2019-05-06T16:49:09.376Z,46.20
2019-05-06T16:50:42.921Z,46.20
2019-05-06T16:52:15.335Z,46.20
2019-05-06T16:53:47.452Z,46.50
2019-05-06T16:55:24.482Z,46.20
2019-05-06T16:57:17.824Z,46.20
2019-05-06T16:58:52.843Z,46.30
2019-05-06T17:00:26.993Z,46.20
2019-05-06T17:02:01.190Z,46.60
2019-05-06T17:03:39.312Z,46.70
2019-05-06T17:05:29.775Z,46.90
2019-05-06T17:07:03.060Z,46.90
2019-05-06T17:08:36.484Z,47.00
2019-05-06T17:10:09.063Z,46.90
2019-05-06T17:11:42.639Z,46.90
2019-05-06T17:13:15.116Z,47.40
2019-05-06T17:14:47.318Z,47.40
2019-05-06T17:16:19.449Z,47.50
2019-05-06T17:17:53.139Z,47.70
2019-05-06T17:19:25.604Z,47.70
2019-05-06T17:20:57.813Z,47.60
2019-05-06T17:22:32.175Z,47.90
2019-05-06T17:24:04.114Z,47.80
2019-05-06T17:25:36.323Z,48.30
2019-05-06T17:27:08.652Z,48.80
2019-05-06T17:28:55.180Z,48.70
2019-05-06T17:30:35.778Z,48.90
2019-05-06T17:32:13.732Z,48.80
2019-05-06T17:33:46.320Z,49.00
2019-05-06T17:35:18.971Z,49.00
2019-05-06T17:36:53.653Z,49.00
2019-05-06T17:38:32.102Z,49.20
2019-05-06T17:40:10.543Z,49.30
2019-05-06T17:41:45.962Z,49.50
2019-05-06T17:43:14.476Z,49.80
2019-05-06T17:44:46.565Z,49.80
2019-05-06T17:46:22.227Z,50.40
2019-05-06T17:47:59.274Z,49.80
2019-05-06T17:49:31.645Z,50.60
2019-05-06T17:51:08.106Z,50.20
2019-05-06T17:52:41.966Z,50.20
2019-05-06T17:54:14.174Z,50.10
2019-05-06T17:55:46.296Z,49.70
2019-05-06T17:57:18.546Z,50.00
2019-05-06T17:58:52.945Z,50.30
2019-05-06T18:00:24.781Z,50.40
2019-05-06T18:01:59.146Z,50.40
2019-05-06T18:03:32.070Z,50.60
2019-05-06T18:05:05.240Z,50.60
2019-05-06T18:06:37.384Z,50.60
2019-05-06T18:08:09.607Z,50.50
2019-05-06T18:09:42.645Z,50.60
2019-05-06T18:11:15.090Z,50.70
2019-05-06T18:12:47.327Z,50.70
2019-05-06T18:14:19.620Z,50.90
2019-05-06T18:15:53.055Z,51.00
2019-05-06T18:17:25.503Z,51.00
2019-05-06T18:18:57.758Z,51.10
2019-05-06T18:20:30.046Z,51.20
2019-05-06T18:22:02.608Z,51.20
2019-05-06T18:23:34.915Z,51.20
2019-05-06T18:25:07.237Z,51.40
2019-05-06T18:26:39.417Z,51.20
2019-05-06T18:28:12.262Z,51.60
2019-05-06T18:29:44.723Z,51.60
2019-05-06T18:31:17.038Z,51.10
2019-05-06T18:32:49.212Z,51.80
2019-05-06T18:34:23.182Z,51.80
2019-05-06T18:35:55.601Z,51.80
2019-05-06T18:37:27.897Z,52.00
2019-05-06T18:39:00.184Z,52.30
2019-05-06T18:40:33.198Z,52.50
2019-05-06T18:42:16.857Z,52.50
2019-05-06T18:43:39.728Z,52.90
2019-05-06T18:45:12.482Z,52.80
2019-05-06T18:46:44.864Z,53.00
2019-05-06T18:48:17.129Z,53.30
2019-05-06T18:49:49.180Z,53.40
2019-05-06T18:51:22.345Z,53.50
2019-05-06T18:52:54.988Z,53.30
2019-05-06T18:54:27.076Z,53.20
2019-05-06T18:55:59.190Z,53.30
2019-05-06T18:57:32.854Z,53.10
2019-05-06T18:59:05.350Z,53.60
2019-05-06T19:00:37.550Z,54.30
2019-05-06T19:02:09.765Z,53.90
2019-05-06T19:03:55.244Z,53.70
2019-05-06T19:05:36.225Z,54.00
2019-05-06T19:07:12.862Z,54.50
2019-05-06T19:08:52.838Z,54.30
2019-05-06T19:10:27.563Z,54.20
2019-05-06T19:11:59.697Z,54.70
2019-05-06T19:13:33.439Z,55.00
2019-05-06T19:15:06.279Z,54.70
2019-05-06T19:16:48.792Z,54.90
2019-05-06T19:18:12.985Z,55.00
2019-05-06T19:19:45.296Z,55.10
2019-05-06T19:21:17.427Z,55.20
2019-05-06T19:22:49.716Z,55.30
2019-05-06T19:24:22.616Z,55.30
2019-05-06T19:25:55.047Z,55.50
2019-05-06T19:27:27.267Z,56.00
2019-05-06T19:29:04.327Z,55.30
2019-05-06T19:30:35.507Z,55.70
2019-05-06T19:32:07.733Z,55.60
2019-05-06T19:33:39.910Z,55.70
2019-05-06T19:35:13.185Z,56.00
2019-05-06T19:36:45.598Z,56.10
2019-05-06T19:38:17.865Z,56.40
2019-05-06T19:39:52.332Z,56.20
2019-05-06T19:41:24.031Z,56.20
2019-05-06T19:42:56.308Z,56.50
2019-05-06T19:44:28.437Z,56.70
2019-05-06T19:46:02.638Z,56.90
2019-05-06T19:47:34.783Z,57.30
2019-05-06T19:49:06.895Z,56.90
2019-05-06T19:50:39.203Z,56.90
2019-05-06T19:52:11.356Z,56.90
2019-05-06T19:53:43.629Z,57.10
2019-05-06T19:55:15.882Z,57.30
2019-05-06T19:56:48.119Z,57.40
2019-05-06T19:58:20.368Z,57.30
2019-05-06T19:59:52.622Z,57.40
2019-05-06T20:01:25.952Z,57.50
2019-05-06T20:02:58.027Z,57.90
2019-05-06T20:04:30.588Z,57.80
2019-05-06T20:06:22.638Z,57.90
2019-05-06T20:08:08.222Z,57.90
2019-05-06T20:09:57.769Z,58.00
2019-05-06T20:11:34.063Z,58.80
2019-05-06T20:13:06.227Z,58.90
2019-05-06T20:14:38.538Z,59.00
2019-05-06T20:16:12.455Z,58.30
2019-05-06T20:17:44.786Z,58.50
2019-05-06T20:19:28.066Z,58.70
2019-05-06T20:20:52.798Z,58.90
2019-05-06T20:22:25.168Z,58.90
2019-05-06T20:23:57.452Z,58.40
2019-05-06T20:25:29.592Z,58.30
2019-05-06T20:27:02.381Z,58.50